createdAt,value
2022-07-29T00:00:00.319Z,15.0
2022-07-29T00:05:00.261Z,15.0
2022-07-29T00:10:00.199Z,14.9
2022-07-29T00:15:00.209Z,14.9
2022-07-29T00:20:00.187Z,14.8
2022-07-29T00:25:00.196Z,14.8
2022-07-29T00:30:00.184Z,14.8
2022-07-29T00:35:00.159Z,14.7
2022-07-29T00:40:00.206Z,14.6
2022-07-29T00:45:00.184Z,14.6
2022-07-29T00:50:00.235Z,14.6
2022-07-29T01:00:00.262Z,14.5
2022-07-29T01:05:00.180Z,14.5
2022-07-29T01:10:00.211Z,14.4
2022-07-29T01:15:00.223Z,14.4
2022-07-29T01:20:00.209Z,14.4
2022-07-29T01:25:00.170Z,14.4
2022-07-29T01:30:00.209Z,14.3
2022-07-29T01:35:00.174Z,14.3
2022-07-29T01:40:00.288Z,14.3
2022-07-29T01:45:00.227Z,14.3
2022-07-29T01:50:00.212Z,14.3
2022-07-29T01:55:00.199Z,14.2
2022-07-29T02:00:00.231Z,14.2
2022-07-29T02:05:00.261Z,14.1
2022-07-29T02:10:00.209Z,14.2
2022-07-29T02:15:00.188Z,14.2
2022-07-29T02:20:00.267Z,14.2
2022-07-29T02:25:00.975Z,14.3
2022-07-29T02:30:00.204Z,14.3
2022-07-29T02:35:00.176Z,14.4
2022-07-29T02:40:00.193Z,14.4
2022-07-29T02:45:00.194Z,14.5
2022-07-29T02:50:00.430Z,14.5
2022-07-29T02:55:00.191Z,14.5
2022-07-29T03:00:00.276Z,14.5
2022-07-29T03:05:00.283Z,14.4
2022-07-29T03:10:00.186Z,14.4
2022-07-29T03:15:00.188Z,14.5
2022-07-29T03:20:00.210Z,14.4
2022-07-29T03:25:00.178Z,14.4
2022-07-29T03:30:00.193Z,14.4
2022-07-29T03:35:00.177Z,14.3
2022-07-29T03:40:00.173Z,14.4
2022-07-29T03:45:00.195Z,14.4
2022-07-29T03:50:00.195Z,14.4
2022-07-29T03:55:00.174Z,14.3
2022-07-29T04:00:00.232Z,14.3
2022-07-29T04:05:00.174Z,14.3
2022-07-29T04:10:00.186Z,14.2
2022-07-29T04:15:00.189Z,14.2
2022-07-29T04:20:00.197Z,14.1
2022-07-29T04:25:03.690Z,14.0
2022-07-29T04:30:00.193Z,14.0
2022-07-29T04:35:00.181Z,13.9
2022-07-29T04:40:00.235Z,13.9
2022-07-29T04:45:01.316Z,13.8
2022-07-29T04:50:00.175Z,13.6
2022-07-29T04:55:00.202Z,13.4
2022-07-29T05:00:00.217Z,13.5
2022-07-29T05:05:00.193Z,13.5
2022-07-29T05:10:00.206Z,13.5
2022-07-29T05:15:00.170Z,13.4
2022-07-29T05:20:00.188Z,13.4
2022-07-29T05:25:03.221Z,13.4
2022-07-29T05:30:00.181Z,13.5
2022-07-29T05:35:00.199Z,13.6
2022-07-29T05:40:00.192Z,13.6
2022-07-29T05:45:00.215Z,13.6
2022-07-29T05:50:00.199Z,13.7
2022-07-29T05:55:00.187Z,13.8
2022-07-29T06:00:00.286Z,13.8
2022-07-29T06:05:00.273Z,14.0
2022-07-29T06:10:00.198Z,14.1
2022-07-29T06:15:00.159Z,14.1
2022-07-29T06:20:00.242Z,14.2
2022-07-29T06:25:00.185Z,14.3
2022-07-29T06:30:00.195Z,14.3
2022-07-29T06:35:24.418Z,14.4
2022-07-29T06:40:00.199Z,14.5
2022-07-29T06:45:00.187Z,14.6
2022-07-29T06:50:00.196Z,14.7
2022-07-29T06:55:00.193Z,14.7
2022-07-29T07:00:00.237Z,14.6
2022-07-29T07:05:00.191Z,14.8
2022-07-29T07:10:00.208Z,14.8
2022-07-29T07:15:00.188Z,14.8
2022-07-29T07:20:00.188Z,14.9
2022-07-29T07:25:00.211Z,15.0
2022-07-29T07:30:00.194Z,15.2
2022-07-29T07:35:00.207Z,15.2
2022-07-29T07:40:00.229Z,15.3
2022-07-29T07:45:13.016Z,15.5
2022-07-29T07:50:00.207Z,15.6
2022-07-29T07:55:00.184Z,15.6
2022-07-29T08:00:00.214Z,15.8
2022-07-29T08:05:00.193Z,16.2
2022-07-29T08:10:00.179Z,16.3
2022-07-29T08:15:00.193Z,16.5
2022-07-29T08:20:00.211Z,16.5
2022-07-29T08:25:00.205Z,16.8
2022-07-29T08:30:00.212Z,16.5
2022-07-29T08:35:00.187Z,16.7
2022-07-29T08:40:00.181Z,16.6
2022-07-29T08:45:00.184Z,16.8
2022-07-29T08:50:00.197Z,17.0
2022-07-29T08:55:00.182Z,17.1
2022-07-29T09:00:04.844Z,17.1
2022-07-29T09:05:00.199Z,17.3
2022-07-29T09:10:00.185Z,17.6
2022-07-29T09:15:00.198Z,17.7
2022-07-29T09:20:00.226Z,17.9
2022-07-29T09:25:00.183Z,18.1
2022-07-29T09:30:00.264Z,18.1
2022-07-29T09:35:00.197Z,17.8
2022-07-29T09:40:00.186Z,17.8
2022-07-29T09:45:00.187Z,18.0
2022-07-29T09:50:00.508Z,18.2
2022-07-29T09:55:00.217Z,18.1
2022-07-29T10:00:00.218Z,18.3
2022-07-29T10:05:00.192Z,18.8
2022-07-29T10:10:00.200Z,18.9
2022-07-29T10:15:00.169Z,18.9
2022-07-29T10:20:00.196Z,18.7
2022-07-29T10:25:00.194Z,18.6
2022-07-29T10:30:00.187Z,19.1
2022-07-29T10:35:00.176Z,18.8
2022-07-29T10:40:00.194Z,18.9
2022-07-29T10:45:00.185Z,18.9
2022-07-29T10:50:01.283Z,19.4
2022-07-29T10:55:00.217Z,19.4
2022-07-29T11:00:00.200Z,19.7
2022-07-29T11:05:00.219Z,19.8
2022-07-29T11:10:00.190Z,20.0
2022-07-29T11:15:00.455Z,19.8
2022-07-29T11:20:00.203Z,20.1
2022-07-29T11:25:00.190Z,20.2
2022-07-29T11:30:01.163Z,20.1
2022-07-29T11:35:00.195Z,19.9
2022-07-29T11:40:02.292Z,20.3
2022-07-29T11:45:04.373Z,21.0
2022-07-29T11:50:00.199Z,21.3
2022-07-29T11:55:00.791Z,21.6
2022-07-29T12:00:04.602Z,21.4
2022-07-29T12:05:00.166Z,21.5
2022-07-29T12:10:00.194Z,21.8
2022-07-29T12:15:00.190Z,22.0
2022-07-29T12:20:00.195Z,22.0
2022-07-29T12:25:11.428Z,22.3
2022-07-29T12:30:00.211Z,23.0
2022-07-29T12:35:00.200Z,23.1
2022-07-29T12:40:00.195Z,23.2
2022-07-29T12:45:00.181Z,23.2
2022-07-29T12:50:00.208Z,23.6
2022-07-29T12:55:00.196Z,23.7
2022-07-29T13:00:00.211Z,24.1
2022-07-29T13:05:00.160Z,23.8
2022-07-29T13:10:00.198Z,23.6
2022-07-29T13:15:00.206Z,23.8
2022-07-29T13:20:00.167Z,24.4
2022-07-29T13:25:00.189Z,24.7
2022-07-29T13:30:00.202Z,24.4
2022-07-29T13:35:00.191Z,23.7
2022-07-29T13:40:00.268Z,23.6
2022-07-29T13:45:00.213Z,24.0
2022-07-29T13:50:00.231Z,24.2
2022-07-29T13:55:00.185Z,24.1
2022-07-29T14:00:00.223Z,24.3
2022-07-29T14:05:03.771Z,24.2
2022-07-29T14:10:00.189Z,24.2
2022-07-29T14:15:00.192Z,24.9
2022-07-29T14:20:00.200Z,25.1
2022-07-29T14:25:09.996Z,24.7
2022-07-29T14:30:00.203Z,25.5
2022-07-29T14:35:00.194Z,26.2
2022-07-29T14:40:00.203Z,25.7
2022-07-29T14:45:00.188Z,26.2
2022-07-29T14:50:00.212Z,26.1
2022-07-29T14:55:00.176Z,26.5
2022-07-29T15:00:00.269Z,26.0
2022-07-29T15:05:00.181Z,26.2
2022-07-29T15:10:00.196Z,26.0
2022-07-29T15:15:00.184Z,26.6
2022-07-29T15:20:00.198Z,26.5
2022-07-29T15:25:00.179Z,26.2
2022-07-29T15:30:00.184Z,26.4
2022-07-29T15:35:00.207Z,26.3
2022-07-29T15:40:00.441Z,26.5
2022-07-29T15:45:00.243Z,26.5
2022-07-29T15:50:00.207Z,26.4
2022-07-29T15:55:00.199Z,26.7
2022-07-29T16:00:00.213Z,27.1
2022-07-29T16:05:00.188Z,26.4
2022-07-29T16:10:00.201Z,25.9
2022-07-29T16:15:00.381Z,26.0
2022-07-29T16:20:00.191Z,25.3
2022-07-29T16:25:00.208Z,25.0
